createdAt,value
2022-10-29T00:01:11.664Z,12.98
2022-10-29T00:03:38.645Z,13.27
2022-10-29T00:06:08.019Z,13.35
2022-10-29T00:08:37.882Z,12.73
2022-10-29T00:11:14.917Z,13.52
2022-10-29T00:13:43.049Z,12.90
2022-10-29T00:16:14.057Z,13.20
2022-10-29T00:18:42.471Z,13.48
2022-10-29T00:21:17.239Z,12.77
2022-10-29T00:23:45.537Z,12.75
2022-10-29T00:26:13.126Z,13.18
2022-10-29T00:28:40.482Z,13.45
2022-10-29T00:31:13.885Z,12.90
2022-10-29T00:33:48.669Z,13.98
2022-10-29T00:36:24.467Z,12.98
2022-10-29T00:38:51.609Z,12.15
2022-10-29T00:41:21.354Z,11.90
2022-10-29T00:44:12.730Z,11.93
2022-10-29T00:46:48.320Z,12.10
2022-10-29T00:49:17.584Z,12.38
2022-10-29T00:51:45.936Z,12.35
2022-10-29T00:54:22.157Z,12.45
2022-10-29T00:57:00.114Z,12.05
2022-10-29T00:59:27.645Z,12.43
2022-10-29T01:01:56.061Z,12.23
2022-10-29T01:04:24.874Z,11.90
2022-10-29T01:06:52.790Z,12.73
2022-10-29T01:09:19.702Z,11.88
2022-10-29T01:12:25.614Z,12.32
2022-10-29T01:15:34.121Z,11.10
2022-10-29T01:18:31.030Z,11.80
2022-10-29T01:21:12.888Z,11.88
2022-10-29T01:23:44.769Z,12.15
2022-10-29T01:26:38.225Z,12.02
2022-10-29T01:29:37.710Z,11.77
2022-10-29T01:32:19.211Z,12.23
2022-10-29T01:35:00.380Z,12.23
2022-10-29T01:38:01.058Z,12.35
2022-10-29T01:40:48.698Z,11.88
2022-10-29T01:43:22.531Z,12.70
2022-10-29T01:46:04.167Z,12.45
2022-10-29T01:48:37.726Z,11.90
2022-10-29T01:51:10.769Z,11.60
2022-10-29T01:53:38.686Z,11.95
2022-10-29T01:56:06.053Z,11.75
2022-10-29T01:58:36.992Z,11.68
2022-10-29T02:01:10.309Z,11.82
2022-10-29T02:03:58.138Z,11.95
2022-10-29T02:06:34.502Z,11.48
2022-10-29T02:09:33.598Z,11.65
2022-10-29T02:12:18.389Z,11.32
2022-10-29T02:15:09.161Z,11.35
2022-10-29T02:17:36.961Z,10.80
2022-10-29T02:20:10.269Z,11.48
2022-10-29T02:22:37.276Z,11.38
2022-10-29T02:25:10.098Z,11.40
2022-10-29T02:27:37.263Z,11.13
2022-10-29T02:30:05.197Z,11.27
2022-10-29T02:32:33.000Z,11.20
2022-10-29T02:35:02.661Z,10.63
2022-10-29T02:37:48.759Z,10.65
2022-10-29T02:40:15.747Z,10.80
2022-10-29T02:42:42.779Z,11.02
2022-10-29T02:45:11.201Z,11.27
2022-10-29T02:47:38.033Z,11.60
2022-10-29T02:50:05.331Z,11.88
2022-10-29T02:52:32.141Z,11.18
2022-10-29T02:55:01.437Z,11.32
2022-10-29T02:57:28.258Z,10.25
2022-10-29T02:59:55.115Z,10.75
2022-10-29T03:02:22.086Z,10.45
2022-10-29T03:04:49.208Z,10.93
2022-10-29T03:07:16.132Z,10.75
2022-10-29T03:09:43.017Z,10.63
2022-10-29T03:12:09.941Z,10.85
2022-10-29T03:14:36.796Z,10.82
2022-10-29T03:17:04.320Z,10.43
2022-10-29T03:19:31.388Z,10.20
2022-10-29T03:21:58.480Z,11.00
2022-10-29T03:24:25.454Z,11.45
2022-10-29T03:26:52.301Z,10.77
2022-10-29T03:29:19.378Z,11.18
2022-10-29T03:31:46.211Z,11.38
2022-10-29T03:34:13.263Z,10.77
2022-10-29T03:36:40.155Z,11.55
2022-10-29T03:39:07.371Z,10.48
2022-10-29T03:41:36.561Z,10.95
2022-10-29T03:44:03.638Z,10.68
2022-10-29T03:46:30.617Z,10.52
2022-10-29T03:48:57.509Z,10.15
2022-10-29T03:51:25.550Z,10.52
2022-10-29T03:53:52.417Z,10.10
2022-10-29T03:56:20.568Z,10.05
2022-10-29T03:58:49.589Z,10.80
2022-10-29T04:01:16.545Z,10.85
2022-10-29T04:03:46.662Z,10.82
2022-10-29T04:06:15.321Z,10.85
2022-10-29T04:08:43.214Z,10.63
2022-10-29T04:11:14.021Z,9.95
2022-10-29T04:13:42.239Z,10.30
2022-10-29T04:16:09.166Z,9.63
2022-10-29T04:18:36.171Z,10.75
2022-10-29T04:23:01.966Z,9.45
2022-10-29T04:29:24.244Z,9.52
2022-10-29T04:31:52.541Z,9.25
2022-10-29T04:34:19.999Z,9.68
2022-10-29T04:36:47.060Z,9.77
2022-10-29T04:39:15.468Z,9.70
2022-10-29T04:41:44.049Z,8.88
2022-10-29T04:44:10.887Z,9.30
2022-10-29T04:46:37.781Z,9.25
2022-10-29T04:49:05.824Z,9.25
2022-10-29T04:51:33.064Z,8.73
2022-10-29T04:54:01.391Z,9.30
2022-10-29T04:56:30.376Z,9.25
2022-10-29T04:58:57.307Z,8.65
2022-10-29T05:01:24.358Z,9.40
2022-10-29T05:03:55.496Z,8.80
2022-10-29T05:06:27.649Z,9.03
2022-10-29T05:09:26.759Z,8.55
2022-10-29T05:11:53.643Z,8.80
2022-10-29T05:14:20.959Z,8.63
2022-10-29T05:16:48.030Z,8.82
2022-10-29T05:19:14.958Z,9.32
2022-10-29T05:21:43.117Z,8.27
2022-10-29T05:24:10.050Z,8.27
2022-10-29T05:26:37.149Z,8.40
2022-10-29T05:29:04.125Z,8.55
2022-10-29T05:31:36.529Z,8.38
2022-10-29T05:34:03.488Z,8.18
2022-10-29T05:36:31.802Z,8.20
2022-10-29T05:38:59.048Z,8.27
2022-10-29T05:41:26.464Z,8.60
2022-10-29T05:43:54.036Z,8.18
2022-10-29T05:46:20.986Z,8.30
2022-10-29T05:48:48.292Z,8.32
2022-10-29T05:51:16.203Z,8.30
2022-10-29T05:53:44.374Z,8.40
2022-10-29T05:56:11.302Z,8.73
2022-10-29T05:58:39.294Z,8.65
2022-10-29T06:01:07.908Z,8.23
2022-10-29T06:03:34.906Z,8.55
2022-10-29T06:06:02.304Z,8.27
2022-10-29T06:08:31.244Z,8.15
2022-10-29T06:11:05.740Z,7.93
2022-10-29T06:13:34.314Z,9.00
2022-10-29T06:16:02.627Z,9.15
2022-10-29T06:18:31.738Z,8.48
2022-10-29T06:21:00.550Z,8.48
2022-10-29T06:23:28.612Z,8.68
2022-10-29T06:25:58.586Z,7.72
2022-10-29T06:28:28.050Z,8.13
2022-10-29T06:30:57.359Z,8.18
2022-10-29T06:33:24.286Z,8.13
2022-10-29T06:35:51.213Z,7.95
2022-10-29T06:38:18.075Z,8.32
2022-10-29T06:40:55.266Z,8.32
2022-10-29T06:43:22.290Z,8.57
2022-10-29T06:45:50.121Z,8.05
2022-10-29T06:48:21.760Z,8.30
2022-10-29T06:50:50.600Z,7.88
2022-10-29T06:53:18.050Z,8.30
2022-10-29T06:55:45.572Z,8.55
2022-10-29T06:58:16.971Z,8.13
2022-10-29T07:00:44.944Z,8.30
2022-10-29T07:03:16.346Z,8.13
2022-10-29T07:05:43.552Z,7.60
2022-10-29T07:08:10.835Z,7.93
2022-10-29T07:10:37.773Z,8.82
2022-10-29T07:13:05.152Z,8.48
2022-10-29T07:15:32.240Z,8.55
2022-10-29T07:18:07.170Z,8.68
2022-10-29T07:20:40.390Z,8.20
2022-10-29T07:23:07.827Z,8.98
2022-10-29T07:25:36.091Z,8.65
2022-10-29T07:28:08.632Z,8.45
2022-10-29T07:30:36.338Z,8.27
2022-10-29T07:33:05.491Z,9.07
2022-10-29T07:35:34.741Z,8.80
2022-10-29T07:38:07.067Z,8.98
2022-10-29T07:40:38.878Z,8.80
2022-10-29T07:43:08.337Z,8.98
2022-10-29T07:45:35.646Z,8.98
2022-10-29T07:48:08.308Z,9.00
2022-10-29T07:50:43.676Z,9.10
2022-10-29T07:53:13.027Z,9.18
2022-10-29T07:55:41.648Z,9.20
2022-10-29T07:58:13.485Z,9.20
2022-10-29T08:00:41.698Z,9.15
2022-10-29T08:03:12.768Z,9.73
2022-10-29T08:05:42.696Z,9.30
2022-10-29T08:08:10.635Z,9.13
2022-10-29T08:10:37.713Z,9.18
2022-10-29T08:13:06.759Z,9.43
2022-10-29T08:15:35.072Z,9.35
2022-10-29T08:18:05.092Z,9.60
2022-10-29T08:20:32.240Z,9.70
2022-10-29T08:23:01.723Z,9.73
2022-10-29T08:25:30.493Z,9.23
2022-10-29T08:28:04.059Z,9.45
2022-10-29T08:30:33.155Z,9.82
2022-10-29T08:33:09.828Z,9.45
2022-10-29T08:35:39.737Z,9.93
2022-10-29T08:38:07.097Z,9.50
2022-10-29T08:40:46.855Z,9.57
2022-10-29T08:43:59.859Z,10.15
2022-10-29T08:46:49.650Z,9.30
2022-10-29T08:49:33.124Z,9.95
2022-10-29T08:52:07.528Z,9.85
2022-10-29T08:54:39.882Z,11.05
2022-10-29T08:57:14.488Z,10.02
2022-10-29T09:02:35.194Z,11.23
2022-10-29T09:05:03.602Z,10.20
2022-10-29T09:08:18.996Z,10.77
2022-10-29T09:10:57.037Z,10.65
2022-10-29T09:13:49.798Z,11.35
2022-10-29T09:16:54.047Z,11.32
2022-10-29T09:19:35.025Z,11.00
2022-10-29T09:22:32.223Z,10.40
2022-10-29T09:25:21.607Z,12.23
2022-10-29T09:28:34.684Z,12.00
2022-10-29T09:31:12.650Z,11.80
2022-10-29T09:33:42.547Z,11.52
2022-10-29T09:36:17.261Z,11.85
2022-10-29T09:39:12.009Z,12.45
2022-10-29T09:41:40.288Z,12.80
2022-10-29T09:44:07.799Z,12.73
2022-10-29T09:46:54.833Z,12.27
2022-10-29T09:49:42.570Z,13.43
2022-10-29T09:52:20.933Z,13.20
2022-10-29T09:54:53.076Z,13.00
2022-10-29T09:57:32.195Z,13.95
2022-10-29T10:00:21.889Z,14.82
2022-10-29T10:03:26.488Z,14.27
2022-10-29T10:06:18.559Z,14.52
2022-10-29T10:09:01.910Z,15.10
2022-10-29T10:11:49.359Z,14.52
2022-10-29T10:14:24.171Z,15.55
2022-10-29T10:17:02.032Z,15.15
2022-10-29T10:19:32.140Z,16.88
2022-10-29T10:22:04.488Z,16.27
2022-10-29T10:24:37.978Z,17.08
2022-10-29T10:27:26.154Z,17.30
2022-10-29T10:30:26.949Z,16.60
2022-10-29T10:32:54.033Z,16.92
2022-10-29T10:35:30.651Z,18.95
2022-10-29T10:37:59.843Z,18.25
2022-10-29T10:40:28.389Z,19.08
2022-10-29T10:42:55.957Z,18.92
2022-10-29T10:45:37.185Z,18.80
2022-10-29T10:48:09.849Z,18.80
2022-10-29T10:50:37.748Z,19.40
2022-10-29T10:53:22.964Z,20.08
2022-10-29T10:55:58.052Z,19.30
2022-10-29T10:58:39.555Z,20.15
2022-10-29T11:01:13.823Z,20.35
2022-10-29T11:03:48.169Z,19.90
2022-10-29T11:06:36.573Z,18.00
2022-10-29T11:09:29.467Z,20.27
2022-10-29T11:12:05.198Z,19.27
2022-10-29T11:15:04.873Z,19.35
2022-10-29T11:17:54.448Z,19.42
2022-10-29T11:20:28.912Z,18.55
2022-10-29T11:23:23.011Z,18.40
2022-10-29T11:26:05.395Z,19.58
2022-10-29T11:28:38.853Z,18.48
2022-10-29T11:31:31.480Z,18.50
2022-10-29T11:34:21.356Z,18.52
2022-10-29T11:37:00.861Z,18.45
2022-10-29T11:39:45.455Z,18.80
2022-10-29T11:42:13.857Z,18.35
2022-10-29T11:44:41.713Z,18.25
2022-10-29T11:47:29.322Z,18.50
2022-10-29T11:50:05.167Z,17.88
2022-10-29T11:52:41.153Z,19.48
2022-10-29T11:55:25.781Z,17.70
2022-10-29T11:58:05.233Z,18.20
2022-10-29T12:01:01.675Z,18.25
2022-10-29T12:03:59.327Z,17.98
2022-10-29T12:06:55.101Z,18.13
2022-10-29T12:10:21.315Z,17.63
2022-10-29T12:13:03.442Z,16.25
2022-10-29T12:15:52.923Z,16.23
2022-10-29T12:18:44.738Z,16.63
2022-10-29T12:21:34.167Z,16.52
2022-10-29T12:24:18.624Z,15.77
2022-10-29T12:27:01.299Z,16.17
2022-10-29T12:29:54.923Z,15.60
2022-10-29T12:32:37.829Z,16.60
2022-10-29T12:35:14.531Z,16.10
2022-10-29T12:38:06.745Z,16.35
2022-10-29T12:40:45.775Z,15.85
2022-10-29T12:43:39.286Z,16.05
2022-10-29T12:46:30.806Z,16.73
2022-10-29T12:49:26.661Z,16.83
2022-10-29T18:15:34.206Z,14.63
2022-10-29T18:18:01.150Z,16.20
2022-10-29T18:20:28.042Z,15.18
2022-10-29T18:22:56.133Z,15.07
2022-10-29T18:25:23.250Z,14.18
2022-10-29T18:27:55.487Z,14.48
2022-10-29T18:30:25.405Z,14.75
2022-10-29T18:32:52.455Z,15.27
2022-10-29T18:35:19.422Z,14.73
2022-10-29T18:37:46.984Z,14.70
2022-10-29T18:40:13.881Z,14.35
2022-10-29T18:42:40.725Z,14.82
2022-10-29T18:45:08.287Z,14.80
2022-10-29T18:47:35.328Z,14.15
2022-10-29T18:50:02.221Z,15.23
2022-10-29T18:52:29.118Z,15.07
2022-10-29T18:54:56.088Z,14.43
2022-10-29T18:57:23.028Z,15.18
2022-10-29T18:59:49.974Z,14.63
2022-10-29T19:02:17.223Z,14.45
2022-10-29T19:04:44.149Z,14.95
2022-10-29T19:07:11.023Z,15.27
2022-10-29T19:09:38.303Z,14.48
2022-10-29T19:12:05.386Z,15.32
2022-10-29T19:14:32.229Z,14.07
2022-10-29T19:16:59.074Z,14.85
2022-10-29T19:19:25.965Z,14.57
2022-10-29T19:21:52.794Z,14.18
2022-10-29T19:24:20.047Z,15.23
2022-10-29T19:26:47.266Z,14.10
2022-10-29T19:29:14.231Z,14.20
2022-10-29T19:31:41.381Z,15.02
2022-10-29T19:34:08.523Z,14.55
2022-10-29T19:36:37.016Z,14.85
2022-10-29T19:39:04.643Z,15.43
2022-10-29T19:41:32.066Z,14.77
2022-10-29T19:44:03.214Z,14.48
2022-10-29T19:46:30.757Z,16.00
2022-10-29T19:48:58.501Z,14.70
2022-10-29T19:51:26.141Z,14.38
2022-10-29T19:53:53.103Z,15.10
2022-10-29T19:56:21.459Z,13.73
2022-10-29T19:58:48.434Z,14.32
2022-10-29T20:01:17.670Z,14.77
2022-10-29T20:03:45.634Z,13.45
2022-10-29T20:06:13.228Z,13.45
2022-10-29T20:08:40.414Z,14.63
2022-10-29T20:11:07.596Z,14.55
2022-10-29T20:13:34.901Z,14.80
2022-10-29T20:16:08.164Z,14.52
2022-10-29T20:18:38.154Z,15.90
2022-10-29T20:23:38.055Z,16.38
2022-10-29T20:26:05.617Z,16.63
2022-10-29T20:28:33.292Z,16.60
2022-10-29T20:31:37.199Z,19.05
2022-10-29T20:34:09.029Z,16.40
2022-10-29T20:36:36.183Z,16.73
2022-10-29T20:39:03.207Z,14.90
2022-10-29T20:41:30.555Z,15.90
2022-10-29T20:43:59.671Z,16.40
2022-10-29T20:46:26.959Z,15.98
2022-10-29T20:48:54.215Z,15.82
2022-10-29T20:51:22.834Z,15.77
2022-10-29T20:57:01.317Z,15.80
2022-10-29T20:59:28.184Z,16.00
2022-10-29T21:01:55.188Z,15.70
2022-10-29T21:04:22.280Z,16.00
2022-10-29T21:06:49.928Z,15.68
2022-10-29T21:09:16.742Z,16.35
2022-10-29T21:11:43.556Z,15.90
2022-10-29T21:14:10.398Z,16.90
2022-10-29T21:16:37.296Z,16.67
2022-10-29T21:19:06.051Z,16.90
2022-10-29T21:21:32.918Z,17.63
2022-10-29T21:23:59.961Z,18.15
2022-10-29T21:26:27.859Z,18.80
2022-10-29T21:28:55.293Z,18.17
2022-10-29T21:31:22.926Z,20.15
2022-10-29T21:33:51.214Z,20.42
2022-10-29T21:36:18.853Z,20.80
2022-10-29T21:38:46.017Z,22.73
2022-10-29T21:41:12.855Z,23.35
2022-10-29T21:43:39.847Z,23.42
2022-10-29T21:46:07.283Z,21.60
2022-10-29T21:48:34.350Z,23.80
2022-10-29T21:51:03.954Z,21.55
2022-10-29T21:53:31.001Z,21.90
2022-10-29T21:55:59.412Z,23.13
2022-10-29T21:58:26.823Z,22.10
2022-10-29T22:01:12.044Z,23.15
2022-10-29T22:03:41.391Z,21.63
2022-10-29T22:06:17.430Z,21.95
2022-10-29T22:08:45.014Z,22.35
2022-10-29T22:11:12.843Z,22.40
2022-10-29T22:13:40.168Z,22.55
2022-10-29T22:16:08.653Z,20.63
2022-10-29T22:18:36.306Z,23.77
2022-10-29T22:21:04.474Z,23.77
2022-10-29T22:23:31.332Z,24.27
2022-10-29T22:25:58.288Z,27.30
2022-10-29T22:28:25.296Z,26.27
2022-10-29T22:31:03.250Z,27.77
2022-10-29T22:33:32.434Z,26.58
2022-10-29T22:36:13.852Z,26.60
2022-10-29T22:38:41.416Z,27.05
2022-10-29T22:41:10.653Z,27.77
2022-10-29T22:43:37.933Z,26.92
2022-10-29T22:46:05.955Z,28.05
2022-10-29T22:48:33.407Z,26.88
2022-10-29T22:51:05.686Z,25.77
2022-10-29T22:53:33.652Z,26.73
2022-10-29T22:56:01.734Z,24.38
2022-10-29T22:58:28.785Z,24.90
2022-10-29T23:01:07.033Z,24.65
2022-10-29T23:03:34.604Z,26.45
2022-10-29T23:06:03.871Z,26.67
2022-10-29T23:08:31.372Z,25.05
2022-10-29T23:10:59.366Z,24.15
2022-10-29T23:13:26.350Z,24.67
2022-10-29T23:15:53.713Z,25.15
2022-10-29T23:18:20.887Z,25.48
2022-10-29T23:20:47.759Z,24.63
2022-10-29T23:23:14.945Z,22.73
2022-10-29T23:25:42.376Z,22.98
2022-10-29T23:28:09.792Z,23.50
2022-10-29T23:30:36.706Z,22.58
2022-10-29T23:33:03.639Z,23.27
2022-10-29T23:35:30.562Z,24.48
2022-10-29T23:37:57.665Z,23.73
2022-10-29T23:40:24.748Z,24.23
2022-10-29T23:42:51.707Z,23.35
2022-10-29T23:45:18.636Z,24.42
2022-10-29T23:47:45.468Z,23.50
2022-10-29T23:50:12.349Z,23.92
2022-10-29T23:52:39.194Z,23.17
2022-10-29T23:55:06.584Z,22.75
2022-10-29T23:57:33.422Z,21.80
